createdAt,value
2022-09-20T00:01:28.201Z,100478.84
2022-09-20T00:03:57.981Z,100480.94
2022-09-20T00:06:27.957Z,100480.66
2022-09-20T00:08:56.778Z,100483.53
2022-09-20T00:11:27.048Z,100479.09
2022-09-20T00:13:56.643Z,100479.91
2022-09-20T00:16:28.262Z,100481.47
2022-09-20T00:18:58.346Z,100486.66
2022-09-20T00:21:28.671Z,100481.72
2022-09-20T00:24:00.213Z,100486.12
2022-09-20T00:26:28.609Z,100484.59
2022-09-20T00:28:58.149Z,100489.28
2022-09-20T00:31:26.174Z,100488.00
2022-09-20T00:34:14.380Z,100483.00
2022-09-20T00:36:42.281Z,100486.84
2022-09-20T00:39:13.400Z,100487.97
2022-09-20T00:41:41.023Z,100495.31
2022-09-20T00:44:41.070Z,100482.50
2022-09-20T00:47:25.293Z,100484.09
2022-09-20T00:50:36.879Z,100482.78
2022-09-20T00:53:04.751Z,100480.94
2022-09-20T00:55:36.323Z,100477.03
2022-09-20T00:58:05.224Z,100479.91
2022-09-20T01:00:33.014Z,100483.78
2022-09-20T01:03:06.209Z,100487.41
2022-09-20T01:05:35.920Z,100485.56
2022-09-20T01:08:04.444Z,100482.19
2022-09-20T01:10:33.036Z,100473.91
2022-09-20T01:13:01.001Z,100474.16
2022-09-20T01:15:31.385Z,100476.25
2022-09-20T01:18:01.707Z,100469.97
2022-09-20T01:20:32.478Z,100471.03
2022-09-20T01:23:18.737Z,100472.06
2022-09-20T01:26:23.490Z,100469.41
2022-09-20T01:29:05.787Z,100473.59
2022-09-20T01:31:36.467Z,100465.00
2022-09-20T01:34:11.229Z,100465.28
2022-09-20T01:37:09.646Z,100462.09
2022-09-20T01:39:52.399Z,100460.84
2022-09-20T01:42:27.525Z,100460.34
2022-09-20T01:45:04.171Z,100458.22
2022-09-20T01:47:41.817Z,100469.72
2022-09-20T01:50:21.189Z,100473.38
2022-09-20T01:53:33.555Z,100471.81
2022-09-20T01:56:01.047Z,100469.72
2022-09-20T01:59:23.197Z,100468.91
2022-09-20T02:01:51.976Z,100466.84
2022-09-20T02:04:28.922Z,100471.53
2022-09-20T02:07:20.868Z,100475.16
2022-09-20T02:10:32.476Z,100466.75
2022-09-20T02:13:04.665Z,100461.88
2022-09-20T02:15:50.328Z,100469.12
2022-09-20T02:18:42.368Z,100469.19
2022-09-20T02:21:10.094Z,100466.16
2022-09-20T02:23:57.776Z,100466.22
2022-09-20T02:26:41.179Z,100467.63
2022-09-20T02:29:33.755Z,100473.38
2022-09-20T02:32:43.678Z,100473.06
2022-09-20T02:35:37.522Z,100473.91
2022-09-20T02:38:11.771Z,100474.16
2022-09-20T02:40:45.289Z,100478.59
2022-09-20T02:43:18.096Z,100481.97
2022-09-20T02:46:01.276Z,100481.19
2022-09-20T02:48:45.795Z,100484.81
2022-09-20T02:51:33.975Z,100484.00
2022-09-20T02:54:14.076Z,100483.63
2022-09-20T02:57:06.337Z,100486.31
2022-09-20T02:59:52.708Z,100487.16
2022-09-20T03:02:56.866Z,100487.19
2022-09-20T03:05:32.171Z,100491.06
2022-09-20T03:08:05.560Z,100500.50
2022-09-20T03:10:54.477Z,100504.38
2022-09-20T03:13:37.420Z,100503.62
2022-09-20T03:16:17.076Z,100507.28
2022-09-20T03:19:22.556Z,100509.88
2022-09-20T03:22:20.804Z,100510.38
2022-09-20T03:24:57.531Z,100511.69
2022-09-20T03:27:25.236Z,100520.41
2022-09-20T03:30:04.902Z,100514.19
2022-09-20T03:32:38.695Z,100518.09
2022-09-20T03:35:33.801Z,100524.00
2022-09-20T03:38:22.970Z,100525.03
2022-09-20T03:41:12.356Z,100522.56
2022-09-20T03:43:49.190Z,100515.25
2022-09-20T03:46:20.293Z,100519.25
2022-09-20T03:49:29.982Z,100522.56
2022-09-20T03:52:36.772Z,100520.25
2022-09-20T03:55:16.462Z,100512.16
2022-09-20T03:58:09.215Z,100515.84
2022-09-20T04:00:53.014Z,100513.12
2022-09-20T04:03:46.838Z,100517.91
2022-09-20T04:06:17.254Z,100522.91
2022-09-20T04:09:22.220Z,100520.81
2022-09-20T04:12:30.922Z,100519.34
2022-09-20T04:15:33.897Z,100528.63
2022-09-20T04:18:16.315Z,100524.13
2022-09-20T04:20:50.568Z,100525.75
2022-09-20T04:23:29.972Z,100530.06
2022-09-20T04:26:01.126Z,100535.87
2022-09-20T04:28:37.534Z,100536.81
2022-09-20T04:31:45.561Z,100542.84
2022-09-20T04:34:21.844Z,100540.69
2022-09-20T04:37:17.560Z,100541.75
2022-09-20T04:39:57.223Z,100543.78
2022-09-20T04:42:52.327Z,100556.06
2022-09-20T04:45:22.661Z,100549.59
2022-09-20T04:48:27.991Z,100552.78
2022-09-20T04:51:15.255Z,100550.78
2022-09-20T04:54:04.368Z,100545.03
2022-09-20T04:56:58.418Z,100560.47
2022-09-20T04:59:32.251Z,100554.66
2022-09-20T05:02:11.827Z,100548.97
2022-09-20T05:05:00.304Z,100558.59
2022-09-20T05:07:52.947Z,100564.09
2022-09-20T05:10:51.818Z,100577.47
2022-09-20T05:13:29.507Z,100570.69
2022-09-20T05:16:04.365Z,100563.78
2022-09-20T05:18:44.912Z,100565.97
2022-09-20T05:21:41.232Z,100563.06
2022-09-20T05:24:52.754Z,100564.38
2022-09-20T05:27:33.722Z,100581.50
2022-09-20T05:30:12.625Z,100578.19
2022-09-20T05:32:45.969Z,100585.81
2022-09-20T05:35:58.194Z,100590.81
2022-09-20T05:38:56.406Z,100595.78
2022-09-20T05:41:43.867Z,100595.75
2022-09-20T05:44:47.606Z,100590.06
2022-09-20T05:47:52.766Z,100588.91
2022-09-20T05:50:42.451Z,100590.78
2022-09-20T05:53:39.552Z,100602.56
2022-09-20T05:56:48.559Z,100595.28
2022-09-20T05:59:22.644Z,100603.13
2022-09-20T06:02:23.885Z,100601.81
2022-09-20T06:05:03.562Z,100598.69
2022-09-20T06:07:55.796Z,100591.03
2022-09-20T06:10:26.146Z,100591.09
2022-09-20T06:13:15.141Z,100593.72
2022-09-20T06:15:54.859Z,100601.56
2022-09-20T06:18:26.040Z,100598.91
2022-09-20T06:21:29.380Z,100603.63
2022-09-20T06:24:02.738Z,100602.34
2022-09-20T06:26:36.872Z,100600.94
2022-09-20T06:29:11.570Z,100600.13
2022-09-20T06:31:39.467Z,100593.78
2022-09-20T06:34:10.548Z,100595.16
2022-09-20T06:37:02.779Z,100597.53
2022-09-20T06:40:04.022Z,100594.66
2022-09-20T06:42:31.788Z,100598.25
2022-09-20T06:44:59.710Z,100611.47
2022-09-20T06:47:27.582Z,100603.00
2022-09-20T06:49:55.656Z,100612.50
2022-09-20T06:52:23.623Z,100608.00
2022-09-20T06:54:54.778Z,100613.72
2022-09-20T06:57:28.050Z,100613.34
2022-09-20T06:59:55.903Z,100606.84
2022-09-20T07:02:23.570Z,100605.06
2022-09-20T07:04:54.133Z,100603.59
2022-09-20T07:07:22.004Z,100602.59
2022-09-20T07:09:49.742Z,100602.72
2022-09-20T07:12:18.782Z,100601.25
2022-09-20T07:14:46.655Z,100614.19
2022-09-20T07:17:14.738Z,100626.03
2022-09-20T07:19:42.436Z,100634.13
2022-09-20T07:22:11.057Z,100631.69
2022-09-20T07:24:39.109Z,100628.94
2022-09-20T07:27:07.306Z,100640.13
2022-09-20T07:29:35.530Z,100642.88
2022-09-20T07:32:03.764Z,100640.19
2022-09-20T07:34:32.122Z,100643.28
2022-09-20T07:37:00.079Z,100642.38
2022-09-20T07:39:28.129Z,100644.72
2022-09-20T07:41:55.974Z,100643.87
2022-09-20T07:44:27.923Z,100647.59
2022-09-20T07:46:58.086Z,100649.25
2022-09-20T07:49:27.276Z,100653.44
2022-09-20T07:51:54.926Z,100658.63
2022-09-20T07:54:22.507Z,100653.34
2022-09-20T07:56:50.510Z,100662.41
2022-09-20T07:59:18.177Z,100665.34
2022-09-20T08:01:45.798Z,100668.88
2022-09-20T08:04:13.789Z,100671.81
2022-09-20T08:06:44.507Z,100662.22
2022-09-20T08:09:14.709Z,100667.91
2022-09-20T08:11:43.614Z,100670.41
2022-09-20T08:14:16.406Z,100661.91
2022-09-20T08:16:49.750Z,100660.84
2022-09-20T08:19:22.877Z,100656.44
2022-09-20T08:21:53.362Z,100663.87
2022-09-20T08:24:21.626Z,100658.50
2022-09-20T08:26:49.190Z,100651.38
2022-09-20T08:29:17.931Z,100653.41
2022-09-20T08:31:46.460Z,100652.88
2022-09-20T08:34:15.440Z,100649.19
2022-09-20T08:36:51.807Z,100654.91
2022-09-20T08:42:24.915Z,100665.41
2022-09-20T08:44:59.164Z,100654.53
2022-09-20T08:47:31.305Z,100660.03
2022-09-20T08:50:08.943Z,100660.16
2022-09-20T08:52:40.808Z,100649.25
2022-09-20T08:55:17.827Z,100648.09
2022-09-20T08:57:54.399Z,100647.56
2022-09-20T09:00:26.520Z,100655.72
2022-09-20T09:02:58.284Z,100653.97
2022-09-20T09:05:36.085Z,100647.50
2022-09-20T09:08:16.302Z,100641.00
2022-09-20T09:10:49.755Z,100641.88
2022-09-20T09:14:26.992Z,100645.25
2022-09-20T09:16:54.795Z,100641.81
2022-09-20T09:19:34.611Z,100638.00
2022-09-20T09:22:04.622Z,100637.06
2022-09-20T09:24:32.543Z,100628.16
2022-09-20T09:27:07.575Z,100621.09
2022-09-20T09:29:35.869Z,100630.47
2022-09-20T09:32:21.213Z,100629.91
2022-09-20T09:34:49.598Z,100629.91
2022-09-20T09:37:31.188Z,100635.06
2022-09-20T09:40:18.411Z,100639.78
2022-09-20T09:42:54.363Z,100643.22
2022-09-20T09:45:31.543Z,100633.81
2022-09-20T09:48:01.613Z,100639.88
2022-09-20T09:50:32.272Z,100642.34
2022-09-20T09:53:10.896Z,100636.25
2022-09-20T09:55:52.738Z,100642.34
2022-09-20T09:58:42.702Z,100643.63
2022-09-20T10:01:33.254Z,100628.59
2022-09-20T10:04:05.370Z,100638.16
2022-09-20T10:07:02.278Z,100632.41
2022-09-20T10:09:49.570Z,100640.81
2022-09-20T10:12:26.299Z,100636.00
2022-09-20T10:15:25.327Z,100640.53
2022-09-20T10:18:12.306Z,100636.09
2022-09-20T10:21:08.031Z,100644.53
2022-09-20T10:26:49.050Z,100638.62
2022-09-20T10:29:23.310Z,100636.87
2022-09-20T10:32:18.960Z,100633.16
2022-09-20T10:35:02.956Z,100636.41
2022-09-20T10:37:58.656Z,100646.53
2022-09-20T10:40:54.202Z,100647.06
2022-09-20T10:43:37.793Z,100639.81
2022-09-20T10:46:31.446Z,100642.41
2022-09-20T10:49:05.114Z,100650.84
2022-09-20T10:51:48.353Z,100643.03
2022-09-20T10:54:22.352Z,100643.84
2022-09-20T10:56:53.061Z,100641.38
2022-09-20T10:59:27.893Z,100643.06
2022-09-20T11:02:33.602Z,100641.38
2022-09-20T11:05:39.306Z,100643.38
2022-09-20T11:08:19.024Z,100644.91
2022-09-20T11:10:58.327Z,100651.91
2022-09-20T11:13:59.769Z,100652.19
2022-09-20T11:16:41.806Z,100647.88
2022-09-20T11:19:11.927Z,100649.69
2022-09-20T11:21:49.379Z,100644.13
2022-09-20T11:24:36.001Z,100639.81
2022-09-20T11:27:25.703Z,100638.62
2022-09-20T11:30:10.367Z,100641.22
2022-09-20T11:32:49.419Z,100637.66
2022-09-20T11:35:37.476Z,100632.69
2022-09-20T11:38:24.982Z,100625.69
2022-09-20T11:41:10.247Z,100625.88
2022-09-20T11:43:42.811Z,100633.56
2022-09-20T11:46:19.179Z,100626.66
2022-09-20T11:49:02.854Z,100631.44
2022-09-20T11:51:49.590Z,100630.72
2022-09-20T11:54:54.775Z,100621.84
2022-09-20T11:57:23.433Z,100625.28
2022-09-20T12:00:02.884Z,100624.00
2022-09-20T12:02:50.463Z,100623.47
2022-09-20T12:05:35.384Z,100621.56
2022-09-20T12:08:18.651Z,100621.09
2022-09-20T12:10:58.267Z,100617.38
2022-09-20T12:13:27.779Z,100611.91
2022-09-20T12:16:05.777Z,100611.13
2022-09-20T12:18:39.585Z,100611.84
2022-09-20T12:21:15.432Z,100608.56
2022-09-20T12:23:59.307Z,100604.97
2022-09-20T12:26:27.105Z,100609.22
2022-09-20T12:28:59.188Z,100603.97
2022-09-20T12:31:31.899Z,100598.44
2022-09-20T12:34:11.885Z,100609.19
2022-09-20T12:36:44.783Z,100599.69
2022-09-20T12:39:14.388Z,100595.06
2022-09-20T12:41:51.660Z,100595.38
2022-09-20T12:44:38.452Z,100599.69
2022-09-20T12:47:12.132Z,100590.78
2022-09-20T12:50:04.444Z,100588.12
2022-09-20T12:52:50.404Z,100596.34
2022-09-20T12:55:49.602Z,100587.16
2022-09-20T12:58:22.990Z,100586.94
2022-09-20T13:00:57.880Z,100583.25
2022-09-20T13:03:36.369Z,100579.75
2022-09-20T13:06:06.745Z,100587.28
2022-09-20T13:08:43.437Z,100586.06
2022-09-20T13:11:13.947Z,100586.06
2022-09-20T13:13:44.543Z,100579.91
2022-09-20T13:16:37.169Z,100577.53
2022-09-20T13:19:29.987Z,100581.06
2022-09-20T13:22:00.530Z,100579.56
2022-09-20T13:24:35.654Z,100578.34
2022-09-20T13:27:09.874Z,100574.28
2022-09-20T13:29:42.400Z,100577.41
2022-09-20T13:32:18.783Z,100574.38
2022-09-20T13:34:46.788Z,100571.75
2022-09-20T13:37:23.656Z,100566.75
2022-09-20T13:39:55.533Z,100567.44
2022-09-20T13:42:23.213Z,100570.69
2022-09-20T13:44:51.427Z,100578.34
2022-09-20T13:47:31.272Z,100573.03
2022-09-20T13:50:18.145Z,100571.94
2022-09-20T13:52:58.082Z,100575.66
2022-09-20T13:55:37.710Z,100567.75
2022-09-20T13:58:24.441Z,100571.59
2022-09-20T14:00:59.347Z,100569.59
2022-09-20T14:03:29.665Z,100563.56
2022-09-20T14:06:02.532Z,100566.69
2022-09-20T14:08:36.413Z,100571.00
2022-09-20T14:11:14.441Z,100569.56
2022-09-20T14:13:45.021Z,100563.06
2022-09-20T14:16:13.254Z,100566.78
2022-09-20T14:18:42.323Z,100566.72
2022-09-20T14:21:11.565Z,100574.94
2022-09-20T14:24:14.512Z,100569.22
2022-09-20T14:26:59.375Z,100567.50
2022-09-20T14:29:44.969Z,100569.00
2022-09-20T14:32:18.341Z,100566.25
2022-09-20T14:34:59.048Z,100566.91
2022-09-20T14:37:43.604Z,100562.09
2022-09-20T14:40:30.475Z,100562.69
2022-09-20T14:43:01.795Z,100561.72
2022-09-20T14:45:29.171Z,100562.28
2022-09-20T14:48:18.305Z,100570.88
2022-09-20T14:51:06.801Z,100562.97
2022-09-20T14:53:37.186Z,100564.22
2022-09-20T14:56:04.956Z,100574.94
2022-09-20T14:58:33.684Z,100568.22
2022-09-20T15:01:15.526Z,100568.53
2022-09-20T15:03:43.502Z,100580.81
2022-09-20T15:06:13.209Z,100577.22
2022-09-20T15:08:45.687Z,100581.91
2022-09-20T15:11:19.280Z,100583.13
2022-09-20T15:13:46.823Z,100582.63
2022-09-20T15:16:17.842Z,100582.69
2022-09-20T15:18:45.538Z,100577.34
2022-09-20T15:21:13.218Z,100579.53
2022-09-20T15:23:41.372Z,100571.56
2022-09-20T15:26:13.239Z,100581.44
2022-09-20T15:28:41.391Z,100577.13
2022-09-20T15:31:10.434Z,100581.22
2022-09-20T15:33:38.019Z,100585.38
2022-09-20T15:36:06.091Z,100582.63
2022-09-20T15:38:34.572Z,100580.50
2022-09-20T15:41:04.236Z,100589.97
2022-09-20T15:43:32.563Z,100595.63
2022-09-20T15:46:16.331Z,100597.38
2022-09-20T15:48:44.249Z,100602.28
2022-09-20T15:51:12.628Z,100600.41
2022-09-20T15:53:45.836Z,100600.69
2022-09-20T15:56:21.074Z,100613.19
2022-09-20T15:59:00.891Z,100610.66
2022-09-20T16:01:32.427Z,100615.81
2022-09-20T16:04:00.562Z,100616.87
2022-09-20T16:06:28.068Z,100619.91
2022-09-20T16:08:55.726Z,100623.97
2022-09-20T16:11:23.991Z,100617.56
2022-09-20T16:13:59.116Z,100614.28
2022-09-20T16:16:29.793Z,100626.84
2022-09-20T16:19:16.377Z,100630.41
2022-09-20T16:21:53.598Z,100622.19
2022-09-20T16:24:34.301Z,100631.94
2022-09-20T16:27:04.216Z,100637.50
2022-09-20T16:29:32.311Z,100639.78
2022-09-20T16:32:01.710Z,100637.16
2022-09-20T16:34:32.519Z,100650.50
2022-09-20T16:37:20.731Z,100646.47
2022-09-20T16:39:48.789Z,100656.75
2022-09-20T16:42:16.996Z,100649.50
2022-09-20T16:44:44.574Z,100658.13
2022-09-20T16:47:18.220Z,100673.81
2022-09-20T16:49:47.274Z,100681.13
2022-09-20T16:52:15.196Z,100683.09
2022-09-20T16:54:42.855Z,100684.87
2022-09-20T16:57:10.497Z,100683.16
2022-09-20T16:59:38.293Z,100680.81
2022-09-20T17:02:05.925Z,100689.00
2022-09-20T17:04:33.555Z,100692.53
2022-09-20T17:07:02.277Z,100695.03
2022-09-20T17:09:29.813Z,100695.53
2022-09-20T17:11:57.404Z,100701.22
2022-09-20T17:14:25.797Z,100703.47
2022-09-20T17:16:53.371Z,100708.22
2022-09-20T17:19:21.212Z,100708.44
2022-09-20T17:21:50.983Z,100714.22
2022-09-20T17:24:20.871Z,100715.56
2022-09-20T17:26:50.785Z,100719.22
2022-09-20T17:29:20.517Z,100719.69
2022-09-20T17:31:54.945Z,100715.53
2022-09-20T17:34:25.362Z,100718.28
2022-09-20T17:36:55.081Z,100722.47
2022-09-20T17:39:23.320Z,100727.59
2022-09-20T17:41:51.487Z,100718.13
2022-09-20T17:44:19.362Z,100716.91
2022-09-20T17:46:50.011Z,100718.84
2022-09-20T17:49:20.180Z,100725.75
2022-09-20T17:51:52.699Z,100727.59
2022-09-20T17:54:21.345Z,100731.28
2022-09-20T17:56:51.202Z,100732.59
2022-09-20T17:59:20.135Z,100729.97
2022-09-20T18:01:50.244Z,100728.87
2022-09-20T18:04:20.921Z,100732.31
2022-09-20T18:06:50.730Z,100734.19
2022-09-20T18:09:21.471Z,100722.41
2022-09-20T18:11:52.716Z,100728.75
2022-09-20T18:14:23.355Z,100735.00
2022-09-20T18:16:57.053Z,100730.56
2022-09-20T18:19:32.295Z,100729.03
2022-09-20T18:22:01.456Z,100727.19
2022-09-20T18:24:30.046Z,100732.44
2022-09-20T18:26:57.631Z,100733.47
2022-09-20T18:29:25.284Z,100735.78
2022-09-20T18:31:57.923Z,100734.50
2022-09-20T18:34:32.033Z,100736.34
2022-09-20T18:37:01.240Z,100743.62
2022-09-20T18:39:33.701Z,100747.34
2022-09-20T18:42:02.622Z,100751.75
2022-09-20T18:44:33.985Z,100745.47
2022-09-20T18:47:05.744Z,100747.84
2022-09-20T18:49:33.401Z,100760.66
2022-09-20T18:52:01.021Z,100783.69
2022-09-20T18:54:33.414Z,100795.38
2022-09-20T18:57:01.290Z,100804.75
2022-09-20T18:59:33.203Z,100815.69
2022-09-20T19:02:21.142Z,100813.16
2022-09-20T19:04:51.967Z,100817.09
2022-09-20T19:07:28.793Z,100805.81
2022-09-20T19:10:05.521Z,100816.25
2022-09-20T19:12:46.003Z,100812.66
2022-09-20T19:15:32.594Z,100817.06
2022-09-20T19:18:06.281Z,100814.34
2022-09-20T19:20:59.117Z,100813.94
2022-09-20T19:23:32.586Z,100817.75
2022-09-20T19:26:23.637Z,100819.25
2022-09-20T19:28:57.111Z,100821.69
2022-09-20T19:31:33.694Z,100825.91
2022-09-20T19:34:10.353Z,100812.84
2022-09-20T19:37:12.283Z,100814.47
2022-09-20T19:39:43.200Z,100815.22
2022-09-20T19:42:19.596Z,100809.28
2022-09-20T19:45:10.329Z,100802.34
2022-09-20T19:47:53.098Z,100814.41
2022-09-20T19:50:46.312Z,100812.03
2022-09-20T19:53:16.974Z,100811.22
2022-09-20T19:55:48.480Z,100813.97
2022-09-20T19:58:16.848Z,100807.81
2022-09-20T20:00:45.682Z,100810.22
2022-09-20T20:03:15.627Z,100813.91
2022-09-20T20:05:56.964Z,100803.44
2022-09-20T20:08:37.592Z,100821.31
2022-09-20T20:11:14.043Z,100820.81
2022-09-20T20:14:04.691Z,100820.03
2022-09-20T20:16:51.203Z,100820.28
2022-09-20T20:19:38.315Z,100824.50
2022-09-20T20:22:15.961Z,100831.16
2022-09-20T20:24:53.719Z,100831.41
2022-09-20T20:27:21.405Z,100829.38
2022-09-20T20:29:49.712Z,100836.38
2022-09-20T20:32:17.368Z,100829.91
2022-09-20T20:34:45.284Z,100834.34
2022-09-20T20:37:13.421Z,100839.88
2022-09-20T20:39:40.931Z,100835.38
2022-09-20T20:42:10.048Z,100832.19
2022-09-20T20:44:37.889Z,100839.06
2022-09-20T20:47:06.635Z,100836.69
2022-09-20T20:49:34.526Z,100834.50
2022-09-20T20:52:05.152Z,100834.06
2022-09-20T20:54:32.917Z,100823.56
2022-09-20T20:57:00.605Z,100820.94
2022-09-20T20:59:28.555Z,100819.91
2022-09-20T21:01:56.299Z,100828.00
2022-09-20T21:04:25.446Z,100827.06
2022-09-20T21:06:53.491Z,100839.12
2022-09-20T21:09:21.058Z,100839.91
2022-09-20T21:11:48.704Z,100839.91
2022-09-20T21:14:16.849Z,100833.09
2022-09-20T21:16:45.140Z,100833.63
2022-09-20T21:19:18.298Z,100826.81
2022-09-20T21:21:47.906Z,100832.31
2022-09-20T21:24:19.388Z,100830.19
2022-09-20T21:26:47.578Z,100830.47
2022-09-20T21:29:16.568Z,100823.66
2022-09-20T21:31:47.259Z,100827.59
2022-09-20T21:34:16.499Z,100826.75
2022-09-20T21:36:47.148Z,100829.81
2022-09-20T21:39:15.010Z,100825.09
2022-09-20T21:41:42.720Z,100830.91
2022-09-20T21:44:10.790Z,100825.97
2022-09-20T21:46:40.546Z,100827.22
2022-09-20T21:49:11.262Z,100821.22
2022-09-20T21:51:42.125Z,100817.03
2022-09-20T21:54:10.982Z,100819.53
2022-09-20T21:56:40.566Z,100820.03
2022-09-20T21:59:08.442Z,100819.25
2022-09-20T22:01:38.246Z,100827.22
2022-09-20T22:04:09.454Z,100827.25
2022-09-20T22:06:42.132Z,100828.41
2022-09-20T22:09:12.971Z,100826.50
2022-09-20T22:11:48.688Z,100824.66
2022-09-20T22:14:19.668Z,100829.66
2022-09-20T22:16:48.570Z,100825.56
2022-09-20T22:19:17.627Z,100825.84
2022-09-20T22:21:48.065Z,100825.47
2022-09-20T22:24:16.844Z,100825.91
2022-09-20T22:26:47.341Z,100819.53
2022-09-20T22:29:15.987Z,100823.53
2022-09-20T22:31:45.769Z,100823.66
2022-09-20T22:34:15.779Z,100822.66
2022-09-20T22:36:43.952Z,100819.19
2022-09-20T22:39:12.673Z,100828.56
2022-09-20T22:41:42.538Z,100830.22
2022-09-20T22:44:10.905Z,100831.13
2022-09-20T22:46:39.434Z,100829.44
2022-09-20T22:49:08.829Z,100829.38
2022-09-20T22:51:37.539Z,100838.81
2022-09-20T22:54:08.178Z,100832.63
2022-09-20T22:56:36.401Z,100836.16
2022-09-20T22:59:08.727Z,100834.47
2022-09-20T23:01:48.664Z,100834.41
2022-09-20T23:04:19.133Z,100839.59
2022-09-20T23:06:49.345Z,100840.03
2022-09-20T23:09:18.430Z,100831.06
2022-09-20T23:11:46.553Z,100828.56
2022-09-20T23:14:16.749Z,100835.41
2022-09-20T23:16:44.577Z,100835.03
2022-09-20T23:19:12.652Z,100835.31
2022-09-20T23:21:43.050Z,100837.63
2022-09-20T23:24:13.304Z,100837.72
2022-09-20T23:26:42.390Z,100836.41
2022-09-20T23:29:15.590Z,100840.03
2022-09-20T23:31:46.500Z,100837.13
2022-09-20T23:34:15.744Z,100842.53
2022-09-20T23:36:44.564Z,100846.78
2022-09-20T23:39:12.659Z,100842.75
2022-09-20T23:41:41.260Z,100848.56
2022-09-20T23:44:10.266Z,100849.69
2022-09-20T23:46:38.591Z,100849.12
2022-09-20T23:49:07.139Z,100844.66
2022-09-20T23:51:35.623Z,100837.03
2022-09-20T23:54:03.928Z,100842.50
2022-09-20T23:56:32.096Z,100848.47
2022-09-20T23:58:59.884Z,100848.19
